sensor_id;sensor_type;location;lat;lon;timestamp;pressure;altitude;pressure_sealevel;temperature;humidity
9141;BME280;46330;50.822;7.126;2022-07-06T00:01:11;101766.63;;;16.44;57.01
9141;BME280;46330;50.822;7.126;2022-07-06T00:03:38;101774.59;;;16.43;56.93
9141;BME280;46330;50.822;7.126;2022-07-06T00:06:09;101769.56;;;16.34;56.87
9141;BME280;46330;50.822;7.126;2022-07-06T00:08:37;101780.91;;;16.37;56.94
9141;BME280;46330;50.822;7.126;2022-07-06T00:11:05;101772.28;;;16.31;57.96
9141;BME280;46330;50.822;7.126;2022-07-06T00:13:33;101780.25;;;16.28;58.92
9141;BME280;46330;50.822;7.126;2022-07-06T00:16:01;101776.81;;;16.24;60.09
9141;BME280;46330;50.822;7.126;2022-07-06T00:18:29;101781.22;;;16.24;60.73
9141;BME280;46330;50.822;7.126;2022-07-06T00:20:57;101782.47;;;16.09;61.24
9141;BME280;46330;50.822;7.126;2022-07-06T00:23:26;101778.84;;;16.13;61.59
9141;BME280;46330;50.822;7.126;2022-07-06T00:25:54;101780.06;;;15.98;61.75
9141;BME280;46330;50.822;7.126;2022-07-06T00:28:22;101775.84;;;15.91;60.97
9141;BME280;46330;50.822;7.126;2022-07-06T00:30:51;101783.47;;;15.65;60.92
9141;BME280;46330;50.822;7.126;2022-07-06T00:33:19;101779.88;;;15.69;60.82
9141;BME280;46330;50.822;7.126;2022-07-06T00:35:47;101784.38;;;15.64;60.25
9141;BME280;46330;50.822;7.126;2022-07-06T00:38:15;101775.84;;;15.51;60.85
9141;BME280;46330;50.822;7.126;2022-07-06T00:40:45;101779.44;;;15.47;60.55
9141;BME280;46330;50.822;7.126;2022-07-06T00:43:13;101779.97;;;15.22;60.47
9141;BME280;46330;50.822;7.126;2022-07-06T00:45:41;101789.59;;;15.24;60.27
9141;BME280;46330;50.822;7.126;2022-07-06T00:48:10;101784.19;;;15.29;60.30
9141;BME280;46330;50.822;7.126;2022-07-06T00:50:38;101793.84;;;15.31;60.66
9141;BME280;46330;50.822;7.126;2022-07-06T00:53:07;101795.72;;;15.25;60.99
9141;BME280;46330;50.822;7.126;2022-07-06T00:55:36;101782.69;;;15.19;61.26
9141;BME280;46330;50.822;7.126;2022-07-06T00:58:08;101798.38;;;15.23;61.12
9141;BME280;46330;50.822;7.126;2022-07-06T01:00:36;101792.53;;;15.07;61.61
9141;BME280;46330;50.822;7.126;2022-07-06T01:03:05;101786.56;;;14.99;61.68
9141;BME280;46330;50.822;7.126;2022-07-06T01:05:33;101798.09;;;14.94;61.75
9141;BME280;46330;50.822;7.126;2022-07-06T01:08:01;101793.84;;;14.85;62.03
9141;BME280;46330;50.822;7.126;2022-07-06T01:10:29;101792.13;;;14.84;61.86
9141;BME280;46330;50.822;7.126;2022-07-06T01:12:57;101797.50;;;14.78;62.31
9141;BME280;46330;50.822;7.126;2022-07-06T01:15:26;101797.44;;;14.81;62.15
9141;BME280;46330;50.822;7.126;2022-07-06T01:17:55;101793.06;;;14.82;62.23
9141;BME280;46330;50.822;7.126;2022-07-06T01:20:30;101796.69;;;14.73;62.46
9141;BME280;46330;50.822;7.126;2022-07-06T01:22:59;101804.53;;;14.76;62.19
9141;BME280;46330;50.822;7.126;2022-07-06T01:25:27;101790.66;;;14.68;62.56
9141;BME280;46330;50.822;7.126;2022-07-06T01:27:55;101788.97;;;14.64;62.90
9141;BME280;46330;50.822;7.126;2022-07-06T01:30:23;101797.69;;;14.68;62.91
9141;BME280;46330;50.822;7.126;2022-07-06T01:32:51;101795.09;;;14.65;62.85
9141;BME280;46330;50.822;7.126;2022-07-06T01:35:19;101795.22;;;14.59;63.27
9141;BME280;46330;50.822;7.126;2022-07-06T01:37:48;101791.84;;;14.50;63.30
9141;BME280;46330;50.822;7.126;2022-07-06T01:40:16;101785.81;;;14.42;64.19
9141;BME280;46330;50.822;7.126;2022-07-06T01:42:44;101789.34;;;14.43;64.30
9141;BME280;46330;50.822;7.126;2022-07-06T01:45:12;101792.78;;;14.46;64.09
9141;BME280;46330;50.822;7.126;2022-07-06T01:47:41;101791.91;;;14.46;64.69
9141;BME280;46330;50.822;7.126;2022-07-06T01:50:10;101788.34;;;14.50;64.75
9141;BME280;46330;50.822;7.126;2022-07-06T01:52:42;101787.53;;;14.46;64.95
9141;BME280;46330;50.822;7.126;2022-07-06T01:55:11;101785.81;;;14.44;65.04
9141;BME280;46330;50.822;7.126;2022-07-06T01:57:39;101791.88;;;14.49;65.35
9141;BME280;46330;50.822;7.126;2022-07-06T02:00:10;101788.50;;;14.41;65.74
9141;BME280;46330;50.822;7.126;2022-07-06T02:02:38;101784.16;;;14.37;65.95
9141;BME280;46330;50.822;7.126;2022-07-06T02:05:10;101795.75;;;14.25;66.52
9141;BME280;46330;50.822;7.126;2022-07-06T02:07:38;101792.38;;;14.16;67.12
9141;BME280;46330;50.822;7.126;2022-07-06T02:10:08;101792.38;;;14.16;67.70
9141;BME280;46330;50.822;7.126;2022-07-06T02:12:37;101793.34;;;14.10;68.02
9141;BME280;46330;50.822;7.126;2022-07-06T02:15:06;101794.25;;;14.08;68.51
9141;BME280;46330;50.822;7.126;2022-07-06T02:17:35;101802.22;;;14.03;68.70
9141;BME280;46330;50.822;7.126;2022-07-06T02:20:04;101793.50;;;13.99;68.89
9141;BME280;46330;50.822;7.126;2022-07-06T02:22:32;101790.13;;;13.90;68.67
9141;BME280;46330;50.822;7.126;2022-07-06T02:25:01;101801.63;;;13.84;69.21
9141;BME280;46330;50.822;7.126;2022-07-06T02:27:29;101799.13;;;13.75;69.50
9141;BME280;46330;50.822;7.126;2022-07-06T02:30:01;101796.56;;;13.68;69.72
9141;BME280;46330;50.822;7.126;2022-07-06T02:32:31;101799.16;;;13.72;70.19
9141;BME280;46330;50.822;7.126;2022-07-06T02:34:59;101806.13;;;13.73;69.96
9141;BME280;46330;50.822;7.126;2022-07-06T02:37:27;101805.31;;;13.71;70.14
9141;BME280;46330;50.822;7.126;2022-07-06T02:39:55;101793.00;;;13.73;70.37
9141;BME280;46330;50.822;7.126;2022-07-06T02:42:25;101795.69;;;13.67;70.43
9141;BME280;46330;50.822;7.126;2022-07-06T02:44:53;101797.50;;;13.64;70.71
9141;BME280;46330;50.822;7.126;2022-07-06T02:47:22;101794.88;;;13.65;70.86
9141;BME280;46330;50.822;7.126;2022-07-06T02:49:50;101800.25;;;13.55;71.01
9141;BME280;46330;50.822;7.126;2022-07-06T02:52:20;101809.00;;;13.55;71.21
9141;BME280;46330;50.822;7.126;2022-07-06T02:54:48;101803.91;;;13.44;71.42
9141;BME280;46330;50.822;7.126;2022-07-06T02:57:17;101806.53;;;13.44;71.78
9141;BME280;46330;50.822;7.126;2022-07-06T02:59:45;101810.03;;;13.42;72.10
9141;BME280;46330;50.822;7.126;2022-07-06T03:02:16;101803.06;;;13.41;72.09
9141;BME280;46330;50.822;7.126;2022-07-06T03:04:46;101808.31;;;13.41;72.15
9141;BME280;46330;50.822;7.126;2022-07-06T03:07:15;101800.59;;;13.29;72.76
9141;BME280;46330;50.822;7.126;2022-07-06T03:09:44;101805.84;;;13.27;72.74
9141;BME280;46330;50.822;7.126;2022-07-06T03:12:12;101796.28;;;13.22;73.02
9141;BME280;46330;50.822;7.126;2022-07-06T03:14:40;101810.41;;;13.13;73.49
9141;BME280;46330;50.822;7.126;2022-07-06T03:17:09;101803.44;;;13.11;73.45
9141;BME280;46330;50.822;7.126;2022-07-06T03:19:37;101813.97;;;13.02;73.74
9141;BME280;46330;50.822;7.126;2022-07-06T03:22:08;101810.53;;;12.98;73.90
9141;BME280;46330;50.822;7.126;2022-07-06T03:24:36;101813.94;;;13.05;73.91
9141;BME280;46330;50.822;7.126;2022-07-06T03:27:05;101813.13;;;13.01;74.18
9141;BME280;46330;50.822;7.126;2022-07-06T03:29:35;101816.56;;;13.05;74.25
9141;BME280;46330;50.822;7.126;2022-07-06T03:32:04;101812.19;;;13.08;74.01
9141;BME280;46330;50.822;7.126;2022-07-06T03:34:32;101809.56;;;13.05;74.36
9141;BME280;46330;50.822;7.126;2022-07-06T03:37:00;101811.31;;;13.05;74.21
9141;BME280;46330;50.822;7.126;2022-07-06T03:39:30;101817.47;;;13.04;74.49
9141;BME280;46330;50.822;7.126;2022-07-06T03:42:00;101822.75;;;13.01;74.39
9141;BME280;46330;50.822;7.126;2022-07-06T03:44:29;101821.00;;;13.00;74.45
9141;BME280;46330;50.822;7.126;2022-07-06T03:46:57;101817.53;;;12.98;74.94
9141;BME280;46330;50.822;7.126;2022-07-06T03:49:26;101821.13;;;12.92;74.96
9141;BME280;46330;50.822;7.126;2022-07-06T03:51:57;101821.13;;;12.92;75.41
9141;BME280;46330;50.822;7.126;2022-07-06T03:54:26;101821.97;;;12.91;74.87
9141;BME280;46330;50.822;7.126;2022-07-06T03:56:58;101828.09;;;12.93;75.23
9141;BME280;46330;50.822;7.126;2022-07-06T03:59:26;101821.94;;;12.92;75.56
9141;BME280;46330;50.822;7.126;2022-07-06T04:01:55;101828.13;;;12.90;75.33
9141;BME280;46330;50.822;7.126;2022-07-06T04:04:23;101827.25;;;12.91;75.05
9141;BME280;46330;50.822;7.126;2022-07-06T04:06:52;101818.47;;;12.92;75.31
9141;BME280;46330;50.822;7.126;2022-07-06T04:09:20;101820.19;;;12.93;74.92
9141;BME280;46330;50.822;7.126;2022-07-06T04:11:48;101823.78;;;12.84;74.89
9141;BME280;46330;50.822;7.126;2022-07-06T04:14:18;101827.38;;;12.76;75.15
9141;BME280;46330;50.822;7.126;2022-07-06T04:16:47;101827.25;;;12.91;75.09
9141;BME280;46330;50.822;7.126;2022-07-06T04:19:15;101828.88;;;13.03;74.53
9141;BME280;46330;50.822;7.126;2022-07-06T04:21:43;101842.00;;;13.04;74.63
9141;BME280;46330;50.822;7.126;2022-07-06T04:24:12;101836.72;;;13.09;74.32
9141;BME280;46330;50.822;7.126;2022-07-06T04:26:40;101841.09;;;13.08;74.31
9141;BME280;46330;50.822;7.126;2022-07-06T04:29:08;101849.94;;;12.97;74.37
9141;BME280;46330;50.822;7.126;2022-07-06T04:31:38;101849.03;;;12.99;74.37
9141;BME280;46330;50.822;7.126;2022-07-06T04:34:06;101851.59;;;13.10;74.81
9141;BME280;46330;50.822;7.126;2022-07-06T04:36:34;101854.16;;;13.14;74.23
9141;BME280;46330;50.822;7.126;2022-07-06T04:39:02;101853.09;;;13.33;73.90
9141;BME280;46330;50.822;7.126;2022-07-06T04:41:31;101849.34;;;13.54;72.93
9141;BME280;46330;50.822;7.126;2022-07-06T04:43:59;101858.09;;;13.56;72.82
9141;BME280;46330;50.822;7.126;2022-07-06T04:46:26;101859.88;;;13.54;72.54
9141;BME280;46330;50.822;7.126;2022-07-06T04:48:57;101849.44;;;13.45;72.90
9141;BME280;46330;50.822;7.126;2022-07-06T04:51:28;101854.53;;;13.60;72.44
9141;BME280;46330;50.822;7.126;2022-07-06T04:53:57;101856.19;;;13.67;72.63
9141;BME280;46330;50.822;7.126;2022-07-06T04:56:25;101848.28;;;13.67;72.26
9141;BME280;46330;50.822;7.126;2022-07-06T04:58:55;101853.50;;;13.72;72.38
9141;BME280;46330;50.822;7.126;2022-07-06T05:01:23;101852.34;;;13.94;71.44
9141;BME280;46330;50.822;7.126;2022-07-06T05:03:51;101860.00;;;14.09;70.85
9141;BME280;46330;50.822;7.126;2022-07-06T05:06:23;101862.31;;;14.32;69.69
9141;BME280;46330;50.822;7.126;2022-07-06T05:08:51;101865.28;;;14.69;68.36
9141;BME280;46330;50.822;7.126;2022-07-06T05:11:20;101856.06;;;14.94;67.45
9141;BME280;46330;50.822;7.126;2022-07-06T05:13:49;101867.28;;;15.51;65.59
9141;BME280;46330;50.822;7.126;2022-07-06T05:16:17;101862.56;;;15.67;64.56
9141;BME280;46330;50.822;7.126;2022-07-06T05:18:45;101857.47;;;15.57;64.27
9141;BME280;46330;50.822;7.126;2022-07-06T05:21:14;101859.50;;;15.43;64.38
9141;BME280;46330;50.822;7.126;2022-07-06T05:23:44;101855.59;;;15.64;64.17
9141;BME280;46330;50.822;7.126;2022-07-06T05:26:12;101854.09;;;15.51;64.74
9141;BME280;46330;50.822;7.126;2022-07-06T05:28:41;101847.00;;;15.94;63.46
9141;BME280;46330;50.822;7.126;2022-07-06T05:31:13;101849.38;;;15.68;63.69
9141;BME280;46330;50.822;7.126;2022-07-06T05:33:42;101851.44;;;16.32;62.26
9141;BME280;46330;50.822;7.126;2022-07-06T05:36:10;101854.22;;;16.64;60.78
9141;BME280;46330;50.822;7.126;2022-07-06T05:38:38;101853.47;;;16.21;61.60
9141;BME280;46330;50.822;7.126;2022-07-06T05:41:07;101842.25;;;16.10;62.01
9141;BME280;46330;50.822;7.126;2022-07-06T05:43:36;101840.28;;;15.81;63.11
9141;BME280;46330;50.822;7.126;2022-07-06T05:46:05;101850.53;;;15.95;62.50
9141;BME280;46330;50.822;7.126;2022-07-06T05:48:35;101846.50;;;16.19;62.54
9141;BME280;46330;50.822;7.126;2022-07-06T05:51:21;101850.63;;;17.01;60.24
9141;BME280;46330;50.822;7.126;2022-07-06T05:53:51;101856.06;;;16.95;59.82
9141;BME280;46330;50.822;7.126;2022-07-06T05:56:21;101862.94;;;16.68;60.42
9141;BME280;46330;50.822;7.126;2022-07-06T05:58:51;101872.78;;;16.95;60.34
9141;BME280;46330;50.822;7.126;2022-07-06T06:01:20;101870.63;;;16.77;60.02
9141;BME280;46330;50.822;7.126;2022-07-06T06:03:58;101879.22;;;17.50;57.66
9141;BME280;46330;50.822;7.126;2022-07-06T06:06:27;101872.44;;;17.73;56.94
9141;BME280;46330;50.822;7.126;2022-07-06T06:08:58;101878.25;;;18.42;55.08
9141;BME280;46330;50.822;7.126;2022-07-06T06:11:27;101875.75;;;18.37;55.15
9141;BME280;46330;50.822;7.126;2022-07-06T06:13:55;101889.34;;;18.82;53.96
9141;BME280;46330;50.822;7.126;2022-07-06T06:16:24;101878.69;;;18.84;54.02
9141;BME280;46330;50.822;7.126;2022-07-06T06:18:52;101881.03;;;18.66;53.91
9141;BME280;46330;50.822;7.126;2022-07-06T06:21:20;101876.69;;;18.90;53.51
9141;BME280;46330;50.822;7.126;2022-07-06T06:23:47;101884.84;;;18.58;53.90
9141;BME280;46330;50.822;7.126;2022-07-06T06:26:15;101883.97;;;18.57;54.06
9141;BME280;46330;50.822;7.126;2022-07-06T06:28:45;101876.50;;;19.21;52.66
9141;BME280;46330;50.822;7.126;2022-07-06T06:31:13;101883.75;;;19.42;51.64
9141;BME280;46330;50.822;7.126;2022-07-06T06:33:40;101873.09;;;19.67;51.58
9141;BME280;46330;50.822;7.126;2022-07-06T06:36:08;101878.16;;;18.45;53.30
9141;BME280;46330;50.822;7.126;2022-07-06T06:38:36;101879.56;;;19.09;52.97
9141;BME280;46330;50.822;7.126;2022-07-06T06:41:04;101872.06;;;19.21;52.22
9141;BME280;46330;50.822;7.126;2022-07-06T06:43:32;101884.97;;;18.25;54.54
9141;BME280;46330;50.822;7.126;2022-07-06T06:46:21;101884.91;;;17.99;55.16
9141;BME280;46330;50.822;7.126;2022-07-06T06:48:49;101879.81;;;17.30;57.10
9141;BME280;46330;50.822;7.126;2022-07-06T06:51:17;101882.16;;;17.08;58.38
9141;BME280;46330;50.822;7.126;2022-07-06T06:53:45;101883.47;;;16.91;58.88
9141;BME280;46330;50.822;7.126;2022-07-06T06:56:13;101883.94;;;17.06;58.38
9141;BME280;46330;50.822;7.126;2022-07-06T06:58:41;101888.25;;;16.77;59.21
9141;BME280;46330;50.822;7.126;2022-07-06T07:01:30;101889.28;;;16.71;60.22
9141;BME280;46330;50.822;7.126;2022-07-06T07:03:59;101890.31;;;16.99;59.42
9141;BME280;46330;50.822;7.126;2022-07-06T07:06:27;101888.56;;;16.63;59.63
9141;BME280;46330;50.822;7.126;2022-07-06T07:08:55;101888.84;;;16.88;58.63
9141;BME280;46330;50.822;7.126;2022-07-06T07:11:23;101893.84;;;17.00;58.40
9141;BME280;46330;50.822;7.126;2022-07-06T07:13:51;101897.97;;;17.42;57.05
9141;BME280;46330;50.822;7.126;2022-07-06T07:16:20;101899.63;;;17.79;55.68
9141;BME280;46330;50.822;7.126;2022-07-06T07:18:49;101893.56;;;18.04;54.18
9141;BME280;46330;50.822;7.126;2022-07-06T07:21:17;101898.09;;;17.70;56.45
9141;BME280;46330;50.822;7.126;2022-07-06T07:23:45;101896.28;;;17.40;55.80
9141;BME280;46330;50.822;7.126;2022-07-06T07:26:13;101890.53;;;18.73;52.73
9141;BME280;46330;50.822;7.126;2022-07-06T07:28:41;101890.88;;;18.89;51.43
9141;BME280;46330;50.822;7.126;2022-07-06T07:31:09;101892.91;;;19.32;49.44
9141;BME280;46330;50.822;7.126;2022-07-06T07:33:37;101896.56;;;19.54;49.18
9141;BME280;46330;50.822;7.126;2022-07-06T07:36:07;101899.41;;;19.73;49.61
9141;BME280;46330;50.822;7.126;2022-07-06T07:38:35;101888.31;;;20.08;48.16
9141;BME280;46330;50.822;7.126;2022-07-06T07:41:03;101903.63;;;19.29;48.86
9141;BME280;46330;50.822;7.126;2022-07-06T07:43:32;101892.66;;;18.89;49.76
9141;BME280;46330;50.822;7.126;2022-07-06T07:46:00;101904.28;;;19.11;50.69
9141;BME280;46330;50.822;7.126;2022-07-06T07:48:28;101904.59;;;19.02;52.15
9141;BME280;46330;50.822;7.126;2022-07-06T07:50:56;101901.00;;;19.27;49.23
9141;BME280;46330;50.822;7.126;2022-07-06T07:53:25;101900.69;;;19.37;48.76
9141;BME280;46330;50.822;7.126;2022-07-06T07:55:53;101903.50;;;19.07;48.48
9141;BME280;46330;50.822;7.126;2022-07-06T07:58:21;101904.66;;;18.74;50.42
9141;BME280;46330;50.822;7.126;2022-07-06T08:00:49;101893.91;;;18.51;51.12
9141;BME280;46330;50.822;7.126;2022-07-06T08:03:17;101897.22;;;19.10;49.85
9141;BME280;46330;50.822;7.126;2022-07-06T08:05:45;101897.75;;;19.21;50.03
9141;BME280;46330;50.822;7.126;2022-07-06T08:08:14;101894.25;;;18.68;49.62
9141;BME280;46330;50.822;7.126;2022-07-06T08:10:43;101893.75;;;18.82;49.16
9141;BME280;46330;50.822;7.126;2022-07-06T08:13:31;101893.56;;;18.61;51.06
9141;BME280;46330;50.822;7.126;2022-07-06T08:16:00;101895.47;;;18.28;52.43
9141;BME280;46330;50.822;7.126;2022-07-06T08:18:28;101893.38;;;18.38;52.36
9141;BME280;46330;50.822;7.126;2022-07-06T08:20:57;101897.13;;;18.31;52.85
9141;BME280;46330;50.822;7.126;2022-07-06T08:23:45;101902.50;;;18.30;53.23
9141;BME280;46330;50.822;7.126;2022-07-06T08:26:14;101908.44;;;18.08;52.81
9141;BME280;46330;50.822;7.126;2022-07-06T08:28:43;101903.28;;;18.87;50.11
9141;BME280;46330;50.822;7.126;2022-07-06T08:31:11;101900.66;;;18.87;50.37
9141;BME280;46330;50.822;7.126;2022-07-06T08:33:59;101903.88;;;18.70;50.74
9141;BME280;46330;50.822;7.126;2022-07-06T08:36:28;101900.59;;;18.62;51.04
9141;BME280;46330;50.822;7.126;2022-07-06T08:38:56;101894.59;;;18.84;51.08
9141;BME280;46330;50.822;7.126;2022-07-06T08:41:28;101892.53;;;18.65;51.13
9141;BME280;46330;50.822;7.126;2022-07-06T08:43:57;101898.47;;;18.73;51.50
9141;BME280;46330;50.822;7.126;2022-07-06T08:46:27;101896.22;;;19.14;50.39
9141;BME280;46330;50.822;7.126;2022-07-06T08:48:55;101898.53;;;19.23;49.66
9141;BME280;46330;50.822;7.126;2022-07-06T08:51:24;101892.97;;;19.55;47.81
9141;BME280;46330;50.822;7.126;2022-07-06T08:53:56;101890.06;;;19.12;49.17
9141;BME280;46330;50.822;7.126;2022-07-06T08:56:27;101895.66;;;19.04;49.42
9141;BME280;46330;50.822;7.126;2022-07-06T08:58:56;101888.03;;;19.20;49.24
9141;BME280;46330;50.822;7.126;2022-07-06T09:01:24;101897.09;;;19.87;47.66
9141;BME280;46330;50.822;7.126;2022-07-06T09:03:54;101885.09;;;20.00;47.49
9141;BME280;46330;50.822;7.126;2022-07-06T09:06:24;101895.31;;;19.88;48.65
9141;BME280;46330;50.822;7.126;2022-07-06T09:08:54;101896.19;;;19.40;48.17
9141;BME280;46330;50.822;7.126;2022-07-06T09:11:23;101893.84;;;19.56;47.37
9141;BME280;46330;50.822;7.126;2022-07-06T09:13:53;101894.44;;;19.39;48.12
9141;BME280;46330;50.822;7.126;2022-07-06T09:16:26;101890.72;;;19.18;48.22
9141;BME280;46330;50.822;7.126;2022-07-06T09:19:06;101902.47;;;19.85;47.96
9141;BME280;46330;50.822;7.126;2022-07-06T09:21:34;101895.19;;;21.01;45.05
9141;BME280;46330;50.822;7.126;2022-07-06T09:24:07;101890.41;;;20.88;43.47
9141;BME280;46330;50.822;7.126;2022-07-06T09:26:35;101896.41;;;20.50;43.83
9141;BME280;46330;50.822;7.126;2022-07-06T09:29:05;101891.72;;;20.57;45.62
9141;BME280;46330;50.822;7.126;2022-07-06T09:31:33;101898.06;;;20.31;45.24
9141;BME280;46330;50.822;7.126;2022-07-06T09:34:03;101890.19;;;20.73;44.20
9141;BME280;46330;50.822;7.126;2022-07-06T09:36:41;101892.19;;;20.88;43.86
9141;BME280;46330;50.822;7.126;2022-07-06T09:39:20;101890.72;;;20.81;43.16
9141;BME280;46330;50.822;7.126;2022-07-06T09:41:51;101891.03;;;20.07;44.50
9141;BME280;46330;50.822;7.126;2022-07-06T09:44:25;101889.56;;;20.66;44.63
9141;BME280;46330;50.822;7.126;2022-07-06T09:46:56;101889.75;;;19.94;45.50
9141;BME280;46330;50.822;7.126;2022-07-06T09:49:25;101884.66;;;19.41;45.60
9141;BME280;46330;50.822;7.126;2022-07-06T09:51:55;101896.22;;;19.63;45.46
9141;BME280;46330;50.822;7.126;2022-07-06T09:54:23;101890.19;;;19.83;45.13
9141;BME280;46330;50.822;7.126;2022-07-06T09:56:52;101892.06;;;19.56;45.26
9141;BME280;46330;50.822;7.126;2022-07-06T09:59:22;101887.50;;;19.35;46.32
9141;BME280;46330;50.822;7.126;2022-07-06T10:01:53;101893.34;;;19.93;45.96
9141;BME280;46330;50.822;7.126;2022-07-06T10:04:24;101896.69;;;19.98;44.63
9141;BME280;46330;50.822;7.126;2022-07-06T10:06:54;101897.91;;;19.66;45.64
9141;BME280;46330;50.822;7.126;2022-07-06T10:09:24;101905.75;;;19.69;45.96
9141;BME280;46330;50.822;7.126;2022-07-06T10:11:54;101909.50;;;19.63;44.27
9141;BME280;46330;50.822;7.126;2022-07-06T10:14:24;101894.97;;;19.73;44.61
9141;BME280;46330;50.822;7.126;2022-07-06T10:16:55;101898.78;;;19.42;44.90
9141;BME280;46330;50.822;7.126;2022-07-06T10:19:23;101889.25;;;19.61;45.89
9141;BME280;46330;50.822;7.126;2022-07-06T10:21:51;101907.22;;;19.53;45.99
9141;BME280;46330;50.822;7.126;2022-07-06T10:24:20;101903.94;;;18.95;47.03
9141;BME280;46330;50.822;7.126;2022-07-06T10:26:48;101898.50;;;18.98;47.32
9141;BME280;46330;50.822;7.126;2022-07-06T10:29:16;101895.59;;;19.06;47.04
9141;BME280;46330;50.822;7.126;2022-07-06T10:31:46;101902.75;;;19.28;46.17
9141;BME280;46330;50.822;7.126;2022-07-06T10:34:18;101897.78;;;19.69;45.60
9141;BME280;46330;50.822;7.126;2022-07-06T10:36:49;101892.38;;;19.47;44.37
9141;BME280;46330;50.822;7.126;2022-07-06T10:39:31;101899.03;;;19.59;44.51
9141;BME280;46330;50.822;7.126;2022-07-06T10:42:38;101893.44;;;20.13;43.23
9141;BME280;46330;50.822;7.126;2022-07-06T10:45:07;101895.31;;;20.11;42.98
9141;BME280;46330;50.822;7.126;2022-07-06T10:47:35;101897.97;;;19.88;42.31
9141;BME280;46330;50.822;7.126;2022-07-06T10:50:05;101888.88;;;20.16;41.22
9141;BME280;46330;50.822;7.126;2022-07-06T10:52:49;101893.78;;;20.27;40.92
9141;BME280;46330;50.822;7.126;2022-07-06T10:55:30;101888.97;;;20.80;40.18
9141;BME280;46330;50.822;7.126;2022-07-06T10:57:59;101887.78;;;21.29;38.38
9141;BME280;46330;50.822;7.126;2022-07-06T11:00:48;101885.72;;;22.32;37.76
9141;BME280;46330;50.822;7.126;2022-07-06T11:03:34;101883.19;;;23.68;35.77
9141;BME280;46330;50.822;7.126;2022-07-06T11:06:07;101878.66;;;24.34;34.23
9141;BME280;46330;50.822;7.126;2022-07-06T11:08:55;101877.25;;;24.42;34.22
9141;BME280;46330;50.822;7.126;2022-07-06T11:11:25;101872.22;;;24.68;33.04
9141;BME280;46330;50.822;7.126;2022-07-06T11:13:59;101880.34;;;25.11;32.31
9141;BME280;46330;50.822;7.126;2022-07-06T11:16:30;101871.56;;;24.17;32.81
9141;BME280;46330;50.822;7.126;2022-07-06T11:19:04;101874.41;;;24.14;33.56
9141;BME280;46330;50.822;7.126;2022-07-06T11:21:35;101889.72;;;24.73;32.41
9141;BME280;46330;50.822;7.126;2022-07-06T11:24:05;101883.16;;;24.79;32.41
9141;BME280;46330;50.822;7.126;2022-07-06T11:26:34;101884.31;;;23.64;33.76
9141;BME280;46330;50.822;7.126;2022-07-06T11:29:07;101876.31;;;24.12;33.87
9141;BME280;46330;50.822;7.126;2022-07-06T11:31:37;101885.44;;;25.00;32.65
9141;BME280;46330;50.822;7.126;2022-07-06T11:34:07;101878.91;;;25.20;32.70
9141;BME280;46330;50.822;7.126;2022-07-06T11:36:37;101874.13;;;25.25;32.45
9141;BME280;46330;50.822;7.126;2022-07-06T11:39:12;101868.50;;;24.70;32.17
9141;BME280;46330;50.822;7.126;2022-07-06T11:41:40;101869.88;;;23.83;34.89
9141;BME280;46330;50.822;7.126;2022-07-06T11:44:16;101871.38;;;23.04;35.83
9141;BME280;46330;50.822;7.126;2022-07-06T11:46:44;101866.47;;;22.61;36.49
9141;BME280;46330;50.822;7.126;2022-07-06T11:49:12;101865.47;;;22.45;37.00
9141;BME280;46330;50.822;7.126;2022-07-06T11:51:42;101867.31;;;22.44;37.79
9141;BME280;46330;50.822;7.126;2022-07-06T11:54:13;101864.13;;;22.01;37.73
9141;BME280;46330;50.822;7.126;2022-07-06T11:56:48;101867.25;;;22.27;37.88
9141;BME280;46330;50.822;7.126;2022-07-06T11:59:16;101855.88;;;23.13;36.34
9141;BME280;46330;50.822;7.126;2022-07-06T12:01:48;101856.88;;;22.93;36.73
9141;BME280;46330;50.822;7.126;2022-07-06T12:04:15;101858.75;;;22.38;37.39
9141;BME280;46330;50.822;7.126;2022-07-06T12:06:45;101862.00;;;22.44;36.55
9141;BME280;46330;50.822;7.126;2022-07-06T12:09:13;101855.38;;;23.04;36.49
9141;BME280;46330;50.822;7.126;2022-07-06T12:11:44;101851.84;;;23.71;34.42
9141;BME280;46330;50.822;7.126;2022-07-06T12:14:14;101854.66;;;23.52;34.30
9141;BME280;46330;50.822;7.126;2022-07-06T12:16:43;101858.66;;;23.77;34.85
9141;BME280;46330;50.822;7.126;2022-07-06T12:19:11;101857.44;;;22.99;35.92
9141;BME280;46330;50.822;7.126;2022-07-06T12:21:45;101850.59;;;23.11;35.17
9141;BME280;46330;50.822;7.126;2022-07-06T12:24:18;101861.91;;;23.16;35.47
9141;BME280;46330;50.822;7.126;2022-07-06T12:26:47;101851.78;;;22.71;35.49
9141;BME280;46330;50.822;7.126;2022-07-06T12:29:16;101848.56;;;23.16;35.18
9141;BME280;46330;50.822;7.126;2022-07-06T12:31:48;101847.84;;;23.13;34.60
9141;BME280;46330;50.822;7.126;2022-07-06T12:34:18;101844.31;;;23.12;34.25
9141;BME280;46330;50.822;7.126;2022-07-06T12:36:50;101830.94;;;23.46;34.66
9141;BME280;46330;50.822;7.126;2022-07-06T12:39:19;101834.56;;;23.28;35.17
9141;BME280;46330;50.822;7.126;2022-07-06T12:41:49;101839.69;;;22.98;34.33
9141;BME280;46330;50.822;7.126;2022-07-06T12:44:19;101827.91;;;24.17;33.30
9141;BME280;46330;50.822;7.126;2022-07-06T12:46:48;101830.03;;;23.79;33.18
9141;BME280;46330;50.822;7.126;2022-07-06T12:49:19;101829.41;;;23.58;33.61
9141;BME280;46330;50.822;7.126;2022-07-06T12:51:57;101829.00;;;23.16;34.10
9141;BME280;46330;50.822;7.126;2022-07-06T12:54:27;101822.19;;;22.93;33.81
9141;BME280;46330;50.822;7.126;2022-07-06T12:56:57;101824.88;;;22.76;34.57
9141;BME280;46330;50.822;7.126;2022-07-06T12:59:25;101816.09;;;22.55;34.89
9141;BME280;46330;50.822;7.126;2022-07-06T13:01:54;101816.88;;;22.76;35.95
9141;BME280;46330;50.822;7.126;2022-07-06T13:04:24;101815.19;;;22.73;35.66
9141;BME280;46330;50.822;7.126;2022-07-06T13:06:52;101803.53;;;23.43;34.22
9141;BME280;46330;50.822;7.126;2022-07-06T13:09:21;101808.19;;;23.05;34.47
9141;BME280;46330;50.822;7.126;2022-07-06T13:11:50;101809.81;;;23.25;34.66
9141;BME280;46330;50.822;7.126;2022-07-06T13:14:18;101809.56;;;22.96;34.22